createdAt,value
2017-11-17T00:00:57.028Z,98966.25
2017-11-17T00:03:25.296Z,98972.35
2017-11-17T00:05:53.587Z,98974.63
2017-11-17T00:08:21.842Z,98970.99
2017-11-17T00:10:50.888Z,98963.22
2017-11-17T00:13:19.133Z,98964.34
2017-11-17T00:15:47.395Z,98964.13
2017-11-17T00:18:15.659Z,98963.61
2017-11-17T00:20:44.685Z,98962.15
2017-11-17T00:23:12.956Z,98960.39
2017-11-17T00:25:41.219Z,98967.64
2017-11-17T00:28:09.484Z,98970.61
2017-11-17T00:30:37.748Z,98968.47
2017-11-17T00:33:06.784Z,98956.30
2017-11-17T00:35:35.057Z,98954.84
2017-11-17T00:38:03.320Z,98954.94
2017-11-17T00:40:31.576Z,98940.16
2017-11-17T00:42:59.869Z,98956.30
2017-11-17T00:45:28.140Z,98950.63
2017-11-17T00:47:56.413Z,98955.44
2017-11-17T00:50:24.671Z,98960.42
2017-11-17T00:52:53.717Z,98965.27
2017-11-17T00:55:21.973Z,98972.61
2017-11-17T00:57:50.240Z,98966.72
2017-11-17T01:00:18.500Z,98965.47
2017-11-17T01:02:47.535Z,98975.86
2017-11-17T01:05:16.561Z,98970.77
2017-11-17T01:07:44.837Z,98977.00
2017-11-17T01:10:13.109Z,98980.15
2017-11-17T01:12:41.377Z,98970.42
2017-11-17T01:15:09.645Z,98982.52
2017-11-17T01:17:37.904Z,98979.22
2017-11-17T01:20:06.941Z,98986.67
2017-11-17T01:22:35.981Z,98969.51
2017-11-17T01:25:04.240Z,98977.27
2017-11-17T01:27:32.508Z,98977.89
2017-11-17T01:30:00.763Z,98971.87
2017-11-17T01:32:29.796Z,98969.25
2017-11-17T01:34:58.061Z,98976.63
2017-11-17T01:37:26.343Z,98974.23
2017-11-17T01:39:55.147Z,98970.88
2017-11-17T01:42:23.441Z,98967.24
2017-11-17T01:44:51.728Z,98965.66
2017-11-17T01:47:19.995Z,98957.10
2017-11-17T01:49:48.276Z,98954.88
2017-11-17T01:52:16.527Z,98955.05
2017-11-17T01:54:44.792Z,98955.72
2017-11-17T01:57:13.059Z,98957.11
2017-11-17T01:59:41.340Z,98959.84
2017-11-17T02:02:21.463Z,98954.95
2017-11-17T02:04:50.517Z,98960.09
2017-11-17T02:07:18.801Z,98962.47
2017-11-17T02:09:47.065Z,98968.08
2017-11-17T02:12:15.451Z,98956.52
2017-11-17T02:14:43.747Z,98956.78
2017-11-17T02:17:12.024Z,98956.08
2017-11-17T02:19:40.298Z,98961.12
2017-11-17T02:22:08.580Z,98956.51
2017-11-17T02:24:36.852Z,98963.55
2017-11-17T02:27:05.129Z,98959.97
2017-11-17T02:29:33.407Z,98963.28
2017-11-17T02:32:01.673Z,98961.66
2017-11-17T02:34:29.943Z,98962.52
2017-11-17T02:36:58.229Z,98967.79
2017-11-17T02:39:26.486Z,98971.97
2017-11-17T02:41:54.764Z,98963.52
2017-11-17T02:44:23.027Z,98970.24
2017-11-17T02:46:51.312Z,98968.78
2017-11-17T02:49:20.346Z,98963.94
2017-11-17T02:51:49.387Z,98970.31
2017-11-17T02:54:17.648Z,98972.37
2017-11-17T02:56:45.925Z,98976.97
2017-11-17T02:59:14.188Z,98969.67
2017-11-17T03:01:42.475Z,98967.09
2017-11-17T03:04:10.731Z,98960.23
2017-11-17T03:06:39.009Z,98967.06
2017-11-17T03:09:07.304Z,98962.45
2017-11-17T03:11:35.576Z,98969.88
2017-11-17T03:14:03.839Z,98970.47
2017-11-17T03:16:32.115Z,98969.77
2017-11-17T03:19:00.381Z,98975.09
2017-11-17T03:21:28.647Z,98974.33
2017-11-17T03:23:57.689Z,98980.88
2017-11-17T03:26:26.105Z,98974.09
2017-11-17T03:28:54.372Z,98978.80
2017-11-17T03:31:22.629Z,98972.20
2017-11-17T03:33:50.897Z,98975.35
2017-11-17T03:36:19.161Z,98979.09
2017-11-17T03:38:47.449Z,98976.91
2017-11-17T03:41:15.708Z,98982.64
2017-11-17T03:43:43.972Z,98988.16
2017-11-17T03:46:12.247Z,98988.08
2017-11-17T03:48:40.531Z,98991.47
2017-11-17T03:51:08.802Z,99004.30
2017-11-17T03:53:37.075Z,99000.88
2017-11-17T03:56:05.357Z,99002.44
2017-11-17T03:58:33.652Z,99003.80
2017-11-17T04:01:01.928Z,98993.28
2017-11-17T04:03:30.203Z,98995.74
2017-11-17T04:05:58.475Z,98992.98
2017-11-17T04:08:26.761Z,98994.18
2017-11-17T04:10:55.025Z,98991.92
2017-11-17T04:13:23.313Z,98988.95
2017-11-17T04:15:51.575Z,98987.81
2017-11-17T04:18:19.861Z,98991.96
2017-11-17T04:20:48.125Z,98990.59
2017-11-17T04:23:16.396Z,98994.55
2017-11-17T04:25:44.684Z,98993.72
2017-11-17T04:28:12.950Z,98999.09
2017-11-17T04:30:41.206Z,99008.55
2017-11-17T04:33:09.496Z,99005.48
2017-11-17T04:35:37.767Z,99005.56
2017-11-17T04:38:06.039Z,99002.70
2017-11-17T04:40:34.294Z,98996.24
2017-11-17T04:43:03.332Z,98989.91
2017-11-17T04:45:31.594Z,98995.08
2017-11-17T04:47:59.864Z,98994.78
2017-11-17T04:50:28.140Z,98995.87
2017-11-17T04:52:56.416Z,98990.97
2017-11-17T04:55:24.702Z,98986.19
2017-11-17T04:57:52.963Z,98987.98
2017-11-17T05:00:21.244Z,98987.58
2017-11-17T05:02:49.508Z,98981.02
2017-11-17T05:05:17.771Z,98983.64
2017-11-17T05:07:46.829Z,98990.05
2017-11-17T05:10:15.097Z,98992.48
2017-11-17T05:12:44.133Z,98991.89
2017-11-17T05:15:13.175Z,99000.52
2017-11-17T05:17:41.444Z,99001.75
2017-11-17T05:20:09.727Z,98999.23
2017-11-17T05:22:37.994Z,99004.09
2017-11-17T05:25:06.262Z,99004.96
2017-11-17T05:27:34.549Z,99013.35
2017-11-17T05:30:02.806Z,99010.23
2017-11-17T05:32:31.073Z,99003.51
2017-11-17T05:34:59.344Z,99011.39
2017-11-17T05:37:27.625Z,99008.45
2017-11-17T05:39:55.909Z,99013.72
2017-11-17T05:42:24.197Z,99016.86
2017-11-17T05:44:52.463Z,99019.63
2017-11-17T05:47:20.743Z,99021.05
2017-11-17T05:49:49.002Z,99025.66
2017-11-17T05:52:17.268Z,99022.64
2017-11-17T05:54:45.528Z,99022.11
2017-11-17T05:57:13.803Z,99023.34
2017-11-17T05:59:42.860Z,99024.53
2017-11-17T06:02:11.129Z,99032.82
2017-11-17T06:04:39.388Z,99020.92
2017-11-17T06:07:07.648Z,99031.89
2017-11-17T06:09:35.932Z,99039.26
2017-11-17T06:12:04.206Z,99034.31
2017-11-17T06:14:32.467Z,99034.02
2017-11-17T06:17:00.735Z,99041.55
2017-11-17T06:19:29.758Z,99032.48
2017-11-17T06:21:58.040Z,99039.02
2017-11-17T06:24:26.300Z,99038.19
2017-11-17T06:26:54.570Z,99037.47
2017-11-17T06:29:23.611Z,99034.15
2017-11-17T06:31:51.880Z,99035.34
2017-11-17T06:34:20.184Z,99025.73
2017-11-17T06:36:48.456Z,99030.60
2017-11-17T06:39:16.735Z,99029.80
2017-11-17T06:41:44.997Z,99034.81
2017-11-17T06:44:13.269Z,99044.37
2017-11-17T06:46:41.538Z,99047.84
2017-11-17T06:49:09.816Z,99048.84
2017-11-17T06:51:38.091Z,99048.87
2017-11-17T06:54:06.351Z,99060.05
2017-11-17T06:56:34.591Z,99058.02
2017-11-17T06:59:03.607Z,99051.95
2017-11-17T07:01:31.858Z,99051.75
2017-11-17T07:04:00.113Z,99053.71
2017-11-17T07:06:28.354Z,99046.13
2017-11-17T07:08:57.386Z,99043.27
2017-11-17T07:11:25.634Z,99037.87
2017-11-17T07:13:53.891Z,99045.56
2017-11-17T07:16:22.143Z,99047.21
2017-11-17T07:18:50.397Z,99048.78
2017-11-17T07:21:19.422Z,99052.06
2017-11-17T07:23:47.670Z,99055.73
2017-11-17T07:26:16.696Z,99062.18
2017-11-17T07:28:44.923Z,99063.54
2017-11-17T07:31:13.172Z,99066.86
2017-11-17T07:33:41.421Z,99075.78
2017-11-17T07:36:09.668Z,99068.34
2017-11-17T07:38:38.672Z,99076.22
2017-11-17T07:41:06.918Z,99084.53
2017-11-17T07:43:35.159Z,99090.48
2017-11-17T07:46:03.433Z,99088.79
2017-11-17T07:48:31.682Z,99084.34
2017-11-17T07:50:59.931Z,99088.99
2017-11-17T07:53:28.943Z,99095.53
2017-11-17T07:55:57.216Z,99091.81
2017-11-17T07:58:26.229Z,99091.19
2017-11-17T08:00:54.467Z,99088.39
2017-11-17T08:03:23.479Z,99094.33
2017-11-17T08:05:51.723Z,99090.66
2017-11-17T08:08:19.977Z,99091.22
2017-11-17T08:10:48.224Z,99093.20
2017-11-17T08:13:16.471Z,99098.94
2017-11-17T08:15:44.718Z,99092.18
2017-11-17T08:18:30.852Z,99097.72
2017-11-17T08:20:59.095Z,99093.87
2017-11-17T08:23:27.355Z,99095.30
2017-11-17T08:25:55.598Z,99092.48
2017-11-17T08:28:23.847Z,99092.74
2017-11-17T08:30:52.087Z,99091.08
2017-11-17T08:33:20.334Z,99099.88
2017-11-17T08:35:48.582Z,99109.63
2017-11-17T08:38:16.828Z,99098.12
2017-11-17T08:40:45.841Z,99094.77
2017-11-17T08:43:14.856Z,99097.02
2017-11-17T08:45:43.092Z,99092.67
2017-11-17T08:48:12.123Z,99098.12
2017-11-17T08:50:40.370Z,99095.59
2017-11-17T08:53:09.365Z,99095.59
2017-11-17T08:55:38.378Z,99103.69
2017-11-17T08:58:06.629Z,99107.91
2017-11-17T09:00:35.640Z,99107.84
2017-11-17T09:03:03.886Z,99108.84
2017-11-17T09:05:32.132Z,99109.70
2017-11-17T09:08:00.379Z,99110.81
2017-11-17T09:10:28.621Z,99115.34
2017-11-17T09:12:57.629Z,99112.34
2017-11-17T09:15:25.875Z,99113.83
2017-11-17T09:17:54.138Z,99117.03
2017-11-17T09:20:22.378Z,99115.38
2017-11-17T09:22:50.628Z,99114.93
2017-11-17T09:25:18.866Z,99116.77
2017-11-17T09:27:47.115Z,99108.41
2017-11-17T09:30:15.359Z,99103.98
2017-11-17T09:32:43.607Z,99108.24
2017-11-17T09:35:12.623Z,99106.38
2017-11-17T09:37:41.628Z,99112.56
2017-11-17T09:40:09.872Z,99109.01
2017-11-17T09:42:38.883Z,99111.63
2017-11-17T09:45:07.124Z,99115.34
2017-11-17T09:47:35.372Z,99114.06
2017-11-17T09:50:03.612Z,99113.73
2017-11-17T09:52:31.854Z,99118.16
2017-11-17T09:55:00.103Z,99121.88
2017-11-17T09:57:28.351Z,99119.60
2017-11-17T09:59:57.300Z,99118.73
2017-11-17T10:02:25.535Z,99120.62
2017-11-17T10:04:53.788Z,99118.44
2017-11-17T10:07:22.027Z,99122.34
2017-11-17T10:09:51.043Z,99117.60
2017-11-17T10:12:19.281Z,99111.78
2017-11-17T10:14:47.528Z,99105.64
2017-11-17T10:17:15.767Z,99108.86
2017-11-17T10:19:44.086Z,99106.44
2017-11-17T10:22:12.322Z,99108.06
2017-11-17T10:24:40.567Z,99098.49
2017-11-17T10:27:08.814Z,99098.92
2017-11-17T10:29:37.051Z,99107.66
2017-11-17T10:32:05.301Z,99102.86
2017-11-17T10:34:34.304Z,99098.00
2017-11-17T10:37:03.320Z,99098.94
2017-11-17T10:39:31.564Z,99088.97
2017-11-17T10:42:00.584Z,99094.82
2017-11-17T10:44:28.825Z,99101.53
2017-11-17T10:46:57.071Z,99094.06
2017-11-17T10:49:25.314Z,99091.03
2017-11-17T10:51:53.567Z,99101.37
2017-11-17T10:54:22.579Z,99101.34
2017-11-17T10:56:57.175Z,99094.27
2017-11-17T10:59:26.184Z,99085.91
2017-11-17T11:01:55.196Z,99090.70
2017-11-17T11:04:23.439Z,99095.95
2017-11-17T11:06:52.453Z,99098.23
2017-11-17T11:09:20.706Z,99095.35
2017-11-17T11:11:52.039Z,99101.47
2017-11-17T11:14:20.314Z,99095.30
2017-11-17T11:16:48.546Z,99097.38
2017-11-17T11:19:16.801Z,99085.87
2017-11-17T11:21:45.042Z,99100.08
2017-11-17T11:24:13.290Z,99098.00
2017-11-17T11:26:41.522Z,99090.22
2017-11-17T11:29:09.780Z,99086.62
2017-11-17T11:31:38.786Z,99087.94
2017-11-17T11:34:07.806Z,99086.55
2017-11-17T11:36:36.048Z,99084.52
2017-11-17T11:39:05.089Z,99085.87
2017-11-17T11:41:33.358Z,99084.88
2017-11-17T11:44:01.612Z,99078.73
2017-11-17T11:46:29.876Z,99074.05
2017-11-17T11:48:58.925Z,99075.45
2017-11-17T11:51:27.201Z,99076.86
2017-11-17T11:53:55.472Z,99074.16
2017-11-17T11:56:23.749Z,99077.53
2017-11-17T11:58:52.043Z,99081.53
2017-11-17T12:01:20.335Z,99081.51
2017-11-17T12:03:49.355Z,99080.28
2017-11-17T12:06:17.633Z,99078.49
2017-11-17T12:08:45.889Z,99078.39
2017-11-17T12:11:14.932Z,99075.16
2017-11-17T12:13:43.188Z,99078.87
2017-11-17T12:16:11.483Z,99078.52
2017-11-17T12:18:39.789Z,99085.17
2017-11-17T12:21:08.035Z,99086.46
2017-11-17T12:23:36.320Z,99085.84
2017-11-17T12:26:04.581Z,99076.75
2017-11-17T12:28:32.857Z,99086.55
2017-11-17T12:31:01.127Z,99084.20
2017-11-17T12:33:29.431Z,99077.80
2017-11-17T12:35:57.684Z,99075.74
2017-11-17T12:38:25.963Z,99074.31
2017-11-17T12:40:54.233Z,99071.92
2017-11-17T12:43:22.509Z,99075.98
2017-11-17T12:45:50.950Z,99077.58
2017-11-17T12:48:19.076Z,99075.27
2017-11-17T12:50:47.343Z,99076.27
2017-11-17T12:53:15.596Z,99068.42
2017-11-17T12:55:43.859Z,99069.02
2017-11-17T12:58:12.115Z,99063.28
2017-11-17T13:00:41.161Z,99065.05
2017-11-17T13:03:09.428Z,99058.05
2017-11-17T13:05:37.742Z,99056.79
2017-11-17T13:08:05.999Z,99057.41
2017-11-17T13:10:34.277Z,99061.81
2017-11-17T13:13:02.560Z,99054.86
2017-11-17T13:15:30.845Z,99050.73
2017-11-17T13:17:59.124Z,99050.17
2017-11-17T13:20:27.381Z,99049.81
2017-11-17T13:22:55.649Z,99052.16
2017-11-17T13:25:23.907Z,99051.11
2017-11-17T13:27:52.195Z,99047.63
2017-11-17T13:30:20.462Z,99049.20
2017-11-17T13:32:48.734Z,99051.34
2017-11-17T13:35:16.999Z,99057.38
2017-11-17T13:37:45.286Z,99054.14
2017-11-17T13:40:13.548Z,99052.48
2017-11-17T13:42:41.807Z,99049.63
2017-11-17T13:45:10.833Z,99054.42
2017-11-17T13:47:39.095Z,99051.89
2017-11-17T13:50:07.374Z,99053.34
2017-11-17T13:52:35.661Z,99055.64
2017-11-17T13:55:03.932Z,99053.02
2017-11-17T13:57:32.196Z,99049.77
2017-11-17T14:00:00.471Z,99057.11
2017-11-17T14:02:28.744Z,99058.09
2017-11-17T14:04:57.019Z,99058.43
2017-11-17T14:07:26.048Z,99058.00
2017-11-17T14:09:54.329Z,99053.77
2017-11-17T14:12:22.584Z,99046.94
2017-11-17T14:14:50.834Z,99050.20
2017-11-17T14:17:19.078Z,99047.28
2017-11-17T14:19:47.328Z,99048.93
2017-11-17T14:22:15.575Z,99048.39
2017-11-17T14:24:43.847Z,99053.72
2017-11-17T14:27:12.087Z,99050.30
2017-11-17T14:29:40.334Z,99051.78
2017-11-17T14:32:08.717Z,99053.48
2017-11-17T14:34:37.087Z,99052.16
2017-11-17T14:37:05.472Z,99050.66
2017-11-17T14:39:33.803Z,99048.41
2017-11-17T14:42:02.096Z,99040.98
2017-11-17T14:44:30.376Z,99040.77
2017-11-17T14:46:58.633Z,99044.03
2017-11-17T14:49:26.911Z,99045.62
2017-11-17T14:51:55.175Z,99044.22
2017-11-17T14:54:23.469Z,99045.46
2017-11-17T14:56:51.768Z,99045.08
2017-11-17T14:59:20.037Z,99046.53
2017-11-17T15:01:48.369Z,99044.43
2017-11-17T15:04:16.624Z,99041.98
2017-11-17T15:06:44.910Z,99035.49
2017-11-17T15:09:13.195Z,99035.91
2017-11-17T15:11:42.208Z,99037.59
2017-11-17T15:14:10.468Z,99033.28
2017-11-17T15:16:40.326Z,99027.22
2017-11-17T15:19:08.607Z,99036.32
2017-11-17T15:21:37.644Z,99025.66
2017-11-17T15:24:06.721Z,99024.02
2017-11-17T15:26:35.003Z,99016.95
2017-11-17T15:29:03.303Z,99023.34
2017-11-17T15:31:32.339Z,99018.84
2017-11-17T15:34:00.769Z,99023.52
2017-11-17T15:36:29.829Z,99028.30
2017-11-17T15:38:58.812Z,99027.67
2017-11-17T15:41:27.093Z,99033.50
2017-11-17T15:43:55.479Z,99034.83
2017-11-17T15:46:23.911Z,99041.32
2017-11-17T15:48:52.257Z,99041.41
2017-11-17T15:51:20.652Z,99045.52
2017-11-17T15:53:49.727Z,99044.52
2017-11-17T15:56:18.041Z,99045.91
2017-11-17T15:58:46.312Z,99037.71
2017-11-17T16:01:14.555Z,99035.00
2017-11-17T16:03:43.911Z,99032.90
2017-11-17T16:06:12.215Z,99037.19
2017-11-17T16:08:40.544Z,99040.98
2017-11-17T16:11:08.853Z,99032.34
2017-11-17T16:13:37.193Z,99031.45
2017-11-17T16:16:06.257Z,99037.72
2017-11-17T16:18:34.545Z,99034.50
2017-11-17T16:21:03.743Z,99028.66
2017-11-17T16:23:32.883Z,99037.48
2017-11-17T16:26:01.337Z,99033.37
2017-11-17T16:28:29.741Z,99037.83
2017-11-17T16:30:58.326Z,99037.45
2017-11-17T16:33:36.035Z,99039.14
2017-11-17T16:36:04.388Z,99039.84
2017-11-17T16:39:07.253Z,99035.84
2017-11-17T16:41:40.853Z,99031.63
2017-11-17T16:47:08.094Z,99033.83
2017-11-17T16:49:36.374Z,99037.64
2017-11-17T16:52:04.641Z,99036.33
2017-11-17T16:54:32.924Z,99026.69
2017-11-17T16:59:22.414Z,99032.37
2017-11-17T17:01:50.720Z,99029.96
2017-11-17T17:04:19.759Z,99035.06
2017-11-17T17:06:49.000Z,99030.23
2017-11-17T17:09:58.397Z,99024.97
2017-11-17T17:12:35.512Z,99027.47
2017-11-17T17:15:06.083Z,99029.03
2017-11-17T17:17:38.891Z,99020.47
2017-11-17T17:20:07.137Z,99027.56
2017-11-17T17:22:35.412Z,99031.39
2017-11-17T17:25:03.658Z,99028.14
2017-11-17T17:27:32.671Z,99026.58
2017-11-17T17:30:00.925Z,99022.50
2017-11-17T17:32:29.163Z,99030.93
2017-11-17T17:34:57.551Z,99031.84
2017-11-17T17:37:47.853Z,99023.35
2017-11-17T17:40:16.187Z,99022.80
2017-11-17T17:42:44.507Z,99023.45
2017-11-17T17:45:13.000Z,99025.25
2017-11-17T17:47:42.136Z,99026.56
2017-11-17T17:50:13.344Z,99019.32
2017-11-17T17:52:42.735Z,99020.48
2017-11-17T17:55:11.219Z,99021.98
2017-11-17T17:57:39.524Z,99016.60
2017-11-17T18:00:08.598Z,99019.48
2017-11-17T18:02:37.649Z,99022.73
2017-11-17T18:05:05.930Z,99022.02
2017-11-17T18:07:34.206Z,99026.79
2017-11-17T18:10:02.477Z,99023.52
2017-11-17T18:12:30.796Z,99012.47
2017-11-17T18:14:59.210Z,99012.19
2017-11-17T18:17:27.547Z,99016.38
2017-11-17T18:19:55.886Z,99022.42
2017-11-17T18:22:24.257Z,99022.51
2017-11-17T18:24:52.713Z,99021.70
2017-11-17T18:27:21.932Z,99022.11
2017-11-17T18:29:50.480Z,99021.96
2017-11-17T18:32:18.969Z,99025.41
2017-11-17T18:34:47.396Z,99023.19
2017-11-17T18:37:15.858Z,99017.44
2017-11-17T18:39:44.162Z,99020.61
2017-11-17T18:42:12.411Z,99025.89
2017-11-17T18:44:40.682Z,99022.03
2017-11-17T18:47:09.015Z,99022.38
2017-11-17T18:49:37.311Z,99020.11
2017-11-17T18:52:06.346Z,99024.85
2017-11-17T18:54:34.687Z,99024.31
2017-11-17T18:57:02.963Z,99021.80
2017-11-17T18:59:31.305Z,99023.91
2017-11-17T19:01:59.583Z,99017.16
2017-11-17T19:04:27.922Z,99020.92
2017-11-17T19:06:56.948Z,99020.52
2017-11-17T19:09:25.990Z,99015.17
2017-11-17T19:11:54.319Z,99016.77
2017-11-17T19:14:22.576Z,99016.13
2017-11-17T19:16:50.932Z,99014.96
2017-11-17T19:19:19.933Z,99013.33
2017-11-17T19:21:48.218Z,99010.30
2017-11-17T19:24:16.486Z,99011.45
2017-11-17T19:26:44.760Z,99006.70
2017-11-17T19:29:13.040Z,99016.36
2017-11-17T19:31:41.379Z,99012.30
2017-11-17T19:34:10.453Z,99014.09
2017-11-17T19:36:38.844Z,99007.84
2017-11-17T19:39:07.190Z,99005.86
2017-11-17T19:41:35.479Z,99005.84
2017-11-17T19:44:03.724Z,98998.37
2017-11-17T19:46:32.049Z,98998.74
2017-11-17T19:49:01.108Z,99000.35
2017-11-17T19:51:29.392Z,98999.25
2017-11-17T19:53:57.653Z,98997.13
2017-11-17T19:56:26.026Z,98989.97
2017-11-17T19:58:54.374Z,98991.69
2017-11-17T20:01:22.663Z,98993.62
2017-11-17T20:03:50.940Z,98994.57
2017-11-17T20:06:19.252Z,98992.06
2017-11-17T20:08:47.547Z,98996.91
2017-11-17T20:11:15.925Z,98998.88
2017-11-17T20:13:45.037Z,98998.58
2017-11-17T20:16:14.070Z,98999.90
2017-11-17T20:18:42.349Z,98997.98
2017-11-17T20:21:10.652Z,98996.84
2017-11-17T20:23:38.943Z,98996.45
2017-11-17T20:26:07.221Z,98995.81
2017-11-17T20:28:35.500Z,98995.22
2017-11-17T20:31:04.533Z,98990.45
2017-11-17T20:33:32.863Z,98987.63
2017-11-17T20:36:01.171Z,98984.05
2017-11-17T20:38:29.482Z,98978.90
2017-11-17T20:40:57.744Z,98980.44
2017-11-17T20:43:25.999Z,98978.88
2017-11-17T20:45:54.374Z,98981.33
2017-11-17T20:48:31.114Z,98977.43
2017-11-17T20:55:33.483Z,98975.67
2017-11-17T20:58:06.484Z,98976.02
2017-11-17T21:00:43.637Z,98979.37
2017-11-17T21:07:46.703Z,98979.45
2017-11-17T21:10:18.499Z,98984.02
2017-11-17T21:12:52.722Z,98980.92
2017-11-17T21:15:35.426Z,98979.91
2017-11-17T21:19:02.054Z,98975.30
2017-11-17T21:21:52.478Z,98967.66
2017-11-17T21:24:24.255Z,98970.86
2017-11-17T21:29:44.640Z,98979.80
2017-11-17T21:32:16.670Z,98977.99
2017-11-17T21:34:47.665Z,98973.36
2017-11-17T21:37:21.685Z,98968.33
2017-11-17T21:41:22.958Z,98965.37
2017-11-17T21:47:47.058Z,98963.78
2017-11-17T21:50:35.709Z,98959.31
2017-11-17T21:53:14.093Z,98963.22
2017-11-17T21:55:47.834Z,98955.35
2017-11-17T21:58:16.278Z,98958.98
2017-11-17T22:01:12.437Z,98950.20
2017-11-17T22:03:47.371Z,98955.73
2017-11-17T22:06:36.533Z,98952.58
2017-11-17T22:09:10.430Z,98952.20
2017-11-17T22:11:44.978Z,98963.05
2017-11-17T22:14:14.304Z,98955.20
2017-11-17T22:16:49.646Z,98951.00
2017-11-17T22:19:30.234Z,98955.80
2017-11-17T22:22:11.733Z,98956.75
2017-11-17T22:24:54.222Z,98955.47
2017-11-17T22:28:08.946Z,98956.64
2017-11-17T22:33:35.173Z,98953.64
2017-11-17T22:36:04.806Z,98942.25
2017-11-17T22:49:21.630Z,98937.75
2017-11-17T22:51:55.658Z,98928.95
2017-11-17T22:54:24.033Z,98932.02
2017-11-17T22:57:03.904Z,98926.77
2017-11-17T22:59:45.167Z,98928.88
2017-11-17T23:02:18.375Z,98926.67
2017-11-17T23:05:54.017Z,98923.09
2017-11-17T23:08:23.938Z,98918.41
2017-11-17T23:10:53.794Z,98918.23
2017-11-17T23:13:22.282Z,98919.70
2017-11-17T23:15:56.221Z,98913.44
2017-11-17T23:18:26.664Z,98915.77
2017-11-17T23:21:08.525Z,98917.14
2017-11-17T23:28:51.107Z,98912.54
2017-11-17T23:31:21.940Z,98903.01
2017-11-17T23:33:50.266Z,98911.26
2017-11-17T23:36:19.324Z,98907.23
2017-11-17T23:38:47.608Z,98903.73
2017-11-17T23:41:15.888Z,98902.21
2017-11-17T23:43:44.176Z,98902.30
2017-11-17T23:46:13.205Z,98904.66
2017-11-17T23:48:41.467Z,98898.61
2017-11-17T23:51:09.752Z,98883.05
2017-11-17T23:53:38.040Z,98873.53
2017-11-17T23:56:06.303Z,98879.94
2017-11-17T23:58:34.572Z,98875.72
